Auburn, New Jersey
Current Conditions -  °F | °C
As of 1:54 AM on Friday 31 Oct 2014 (Local Time) from KPHL Reporting Station
Clear Clear  
Wind Chill: 44°   Ceiling: Unl
Heat Index: 44°   Visibility: 10mi
Dew Point: 35°   Wind: 3mph
Humidity: 71%   Direction: 330°NNW
Pressure: 30.04"   Gusts: NA
Location:  39.757°N, 75.3338°W
Report Text: KPHL 310554Z 33003KT 10SM CLR 07/02 A3004 RMK AO2 SLP172 T00670017 10111 20061 56002
Loading
Personal Weather Stations






























Interactive Weather Map
Tropical Storm Tracking
New forecast layout! Learn more

10-Day Weather Forecast

Advertisements
Track Severe Weather on mobile